sensor_id;sensor_type;location;lat;lon;timestamp;temperature;humidity
9410;DHT22;4744;52.576;13.568;2023-04-10T00:01:11;3.40;1.00
9410;DHT22;4744;52.576;13.568;2023-04-10T00:03:38;3.40;1.00
9410;DHT22;4744;52.576;13.568;2023-04-10T00:06:06;3.40;1.00
9410;DHT22;4744;52.576;13.568;2023-04-10T00:08:34;3.30;1.00
9410;DHT22;4744;52.576;13.568;2023-04-10T00:11:01;3.20;1.00
9410;DHT22;4744;52.576;13.568;2023-04-10T00:13:28;3.20;1.00
9410;DHT22;4744;52.576;13.568;2023-04-10T00:15:55;3.20;1.00
9410;DHT22;4744;52.576;13.568;2023-04-10T00:18:22;3.10;1.00
9410;DHT22;4744;52.576;13.568;2023-04-10T00:20:49;3.10;1.00
9410;DHT22;4744;52.576;13.568;2023-04-10T00:23:16;3.10;1.00
9410;DHT22;4744;52.576;13.568;2023-04-10T00:25:46;3.10;1.00
9410;DHT22;4744;52.576;13.568;2023-04-10T00:28:13;3.10;1.00
9410;DHT22;4744;52.576;13.568;2023-04-10T00:30:41;3.00;1.00
9410;DHT22;4744;52.576;13.568;2023-04-10T00:33:08;3.00;1.00
9410;DHT22;4744;52.576;13.568;2023-04-10T00:35:35;3.00;1.00
9410;DHT22;4744;52.576;13.568;2023-04-10T00:38:02;3.00;1.00
9410;DHT22;4744;52.576;13.568;2023-04-10T00:40:29;3.10;1.00
9410;DHT22;4744;52.576;13.568;2023-04-10T00:42:58;3.10;1.00
9410;DHT22;4744;52.576;13.568;2023-04-10T00:45:25;3.10;1.00
9410;DHT22;4744;52.576;13.568;2023-04-10T00:47:52;3.10;1.00
9410;DHT22;4744;52.576;13.568;2023-04-10T00:50:20;3.10;1.00
9410;DHT22;4744;52.576;13.568;2023-04-10T00:52:47;3.10;1.00
9410;DHT22;4744;52.576;13.568;2023-04-10T00:55:16;3.10;1.00
9410;DHT22;4744;52.576;13.568;2023-04-10T00:57:45;3.10;1.00
9410;DHT22;4744;52.576;13.568;2023-04-10T01:00:14;3.10;1.00
9410;DHT22;4744;52.576;13.568;2023-04-10T01:02:42;3.10;1.00
9410;DHT22;4744;52.576;13.568;2023-04-10T01:05:10;3.10;1.00
9410;DHT22;4744;52.576;13.568;2023-04-10T01:07:50;3.10;1.00
9410;DHT22;4744;52.576;13.568;2023-04-10T01:10:25;3.10;1.00
9410;DHT22;4744;52.576;13.568;2023-04-10T01:12:58;3.00;1.00
9410;DHT22;4744;52.576;13.568;2023-04-10T01:15:37;3.00;1.00
9410;DHT22;4744;52.576;13.568;2023-04-10T01:18:10;3.00;1.00
9410;DHT22;4744;52.576;13.568;2023-04-10T01:20:41;3.10;1.00
9410;DHT22;4744;52.576;13.568;2023-04-10T01:23:49;3.00;1.00
9410;DHT22;4744;52.576;13.568;2023-04-10T01:26:35;3.00;1.00
9410;DHT22;4744;52.576;13.568;2023-04-10T01:29:06;3.00;1.00
9410;DHT22;4744;52.576;13.568;2023-04-10T01:31:36;2.90;1.00
9410;DHT22;4744;52.576;13.568;2023-04-10T01:34:07;2.90;1.00
9410;DHT22;4744;52.576;13.568;2023-04-10T01:36:46;2.90;1.00
9410;DHT22;4744;52.576;13.568;2023-04-10T01:39:18;2.90;1.00
9410;DHT22;4744;52.576;13.568;2023-04-10T01:41:47;2.80;1.00
9410;DHT22;4744;52.576;13.568;2023-04-10T01:44:22;2.70;1.00
9410;DHT22;4744;52.576;13.568;2023-04-10T01:46:51;2.70;1.00
9410;DHT22;4744;52.576;13.568;2023-04-10T01:49:18;2.60;1.00
9410;DHT22;4744;52.576;13.568;2023-04-10T01:51:46;2.60;1.00
9410;DHT22;4744;52.576;13.568;2023-04-10T01:54:14;2.50;1.00
9410;DHT22;4744;52.576;13.568;2023-04-10T01:56:42;2.50;1.00
9410;DHT22;4744;52.576;13.568;2023-04-10T01:59:10;2.50;1.00
9410;DHT22;4744;52.576;13.568;2023-04-10T02:01:39;2.40;1.00
9410;DHT22;4744;52.576;13.568;2023-04-10T02:04:06;2.40;1.00
9410;DHT22;4744;52.576;13.568;2023-04-10T02:06:41;2.40;1.00
9410;DHT22;4744;52.576;13.568;2023-04-10T02:09:16;2.30;1.00
9410;DHT22;4744;52.576;13.568;2023-04-10T02:11:48;2.30;1.00
9410;DHT22;4744;52.576;13.568;2023-04-10T02:14:19;2.20;1.00
9410;DHT22;4744;52.576;13.568;2023-04-10T02:16:52;2.20;1.00
9410;DHT22;4744;52.576;13.568;2023-04-10T02:19:20;2.10;1.00
9410;DHT22;4744;52.576;13.568;2023-04-10T02:21:48;2.10;1.00
9410;DHT22;4744;52.576;13.568;2023-04-10T02:24:16;2.10;1.00
9410;DHT22;4744;52.576;13.568;2023-04-10T02:26:44;2.10;1.00
9410;DHT22;4744;52.576;13.568;2023-04-10T02:29:11;2.00;1.00
9410;DHT22;4744;52.576;13.568;2023-04-10T02:31:39;2.00;1.00
9410;DHT22;4744;52.576;13.568;2023-04-10T02:34:07;2.00;1.00
9410;DHT22;4744;52.576;13.568;2023-04-10T02:36:35;2.00;1.00
9410;DHT22;4744;52.576;13.568;2023-04-10T02:39:02;2.00;1.00
9410;DHT22;4744;52.576;13.568;2023-04-10T02:41:29;2.00;1.00
9410;DHT22;4744;52.576;13.568;2023-04-10T02:43:56;1.90;1.00
9410;DHT22;4744;52.576;13.568;2023-04-10T02:46:23;2.00;1.00
9410;DHT22;4744;52.576;13.568;2023-04-10T02:48:51;1.90;1.00
9410;DHT22;4744;52.576;13.568;2023-04-10T02:51:19;1.90;1.00
9410;DHT22;4744;52.576;13.568;2023-04-10T02:53:46;1.80;1.00
9410;DHT22;4744;52.576;13.568;2023-04-10T02:56:13;1.80;1.00
9410;DHT22;4744;52.576;13.568;2023-04-10T02:58:40;1.70;1.00
9410;DHT22;4744;52.576;13.568;2023-04-10T03:01:10;1.70;1.00
9410;DHT22;4744;52.576;13.568;2023-04-10T03:03:38;1.70;1.00
9410;DHT22;4744;52.576;13.568;2023-04-10T03:06:05;1.70;1.00
9410;DHT22;4744;52.576;13.568;2023-04-10T03:08:33;1.60;1.00
9410;DHT22;4744;52.576;13.568;2023-04-10T03:11:00;1.60;1.00
9410;DHT22;4744;52.576;13.568;2023-04-10T03:13:27;1.60;1.00
9410;DHT22;4744;52.576;13.568;2023-04-10T03:15:54;1.60;1.00
9410;DHT22;4744;52.576;13.568;2023-04-10T03:18:21;1.70;1.00
9410;DHT22;4744;52.576;13.568;2023-04-10T03:20:48;1.70;1.00
9410;DHT22;4744;52.576;13.568;2023-04-10T03:23:15;1.70;1.00
9410;DHT22;4744;52.576;13.568;2023-04-10T03:25:43;1.70;1.00
9410;DHT22;4744;52.576;13.568;2023-04-10T03:28:15;1.80;1.00
9410;DHT22;4744;52.576;13.568;2023-04-10T03:30:42;1.80;1.00
9410;DHT22;4744;52.576;13.568;2023-04-10T03:33:09;1.80;1.00
9410;DHT22;4744;52.576;13.568;2023-04-10T03:35:36;1.80;1.00
9410;DHT22;4744;52.576;13.568;2023-04-10T03:38:03;1.80;1.00
9410;DHT22;4744;52.576;13.568;2023-04-10T03:40:30;1.80;1.00
9410;DHT22;4744;52.576;13.568;2023-04-10T03:43:00;1.80;1.00
9410;DHT22;4744;52.576;13.568;2023-04-10T03:45:27;1.80;1.00
9410;DHT22;4744;52.576;13.568;2023-04-10T03:47:53;1.80;1.00
9410;DHT22;4744;52.576;13.568;2023-04-10T03:50:20;1.80;1.00
9410;DHT22;4744;52.576;13.568;2023-04-10T03:52:47;1.80;1.00
9410;DHT22;4744;52.576;13.568;2023-04-10T03:55:15;1.80;1.00
9410;DHT22;4744;52.576;13.568;2023-04-10T03:57:43;1.70;1.00
9410;DHT22;4744;52.576;13.568;2023-04-10T04:00:13;1.70;1.00
9410;DHT22;4744;52.576;13.568;2023-04-10T04:02:40;1.70;1.00
9410;DHT22;4744;52.576;13.568;2023-04-10T04:05:08;1.70;1.00
9410;DHT22;4744;52.576;13.568;2023-04-10T04:07:35;1.60;1.00
9410;DHT22;4744;52.576;13.568;2023-04-10T04:10:02;1.60;1.00
9410;DHT22;4744;52.576;13.568;2023-04-10T04:12:29;1.60;1.00
9410;DHT22;4744;52.576;13.568;2023-04-10T04:14:55;1.60;1.00
9410;DHT22;4744;52.576;13.568;2023-04-10T04:17:24;1.60;1.00
9410;DHT22;4744;52.576;13.568;2023-04-10T04:19:51;1.60;1.00
9410;DHT22;4744;52.576;13.568;2023-04-10T04:22:19;1.60;1.00
9410;DHT22;4744;52.576;13.568;2023-04-10T04:24:46;1.60;1.00
9410;DHT22;4744;52.576;13.568;2023-04-10T04:27:12;1.60;1.00
9410;DHT22;4744;52.576;13.568;2023-04-10T04:29:39;1.60;1.00
9410;DHT22;4744;52.576;13.568;2023-04-10T04:32:06;1.60;1.00
9410;DHT22;4744;52.576;13.568;2023-04-10T04:34:35;1.60;1.00
9410;DHT22;4744;52.576;13.568;2023-04-10T04:37:02;1.50;1.00
9410;DHT22;4744;52.576;13.568;2023-04-10T04:39:30;1.50;1.00
9410;DHT22;4744;52.576;13.568;2023-04-10T04:41:57;1.50;1.00
9410;DHT22;4744;52.576;13.568;2023-04-10T04:44:24;1.50;1.00
9410;DHT22;4744;52.576;13.568;2023-04-10T04:46:51;1.50;1.00
9410;DHT22;4744;52.576;13.568;2023-04-10T04:49:17;1.50;1.00
9410;DHT22;4744;52.576;13.568;2023-04-10T04:51:46;1.50;1.00
9410;DHT22;4744;52.576;13.568;2023-04-10T04:54:13;1.50;1.00
9410;DHT22;4744;52.576;13.568;2023-04-10T04:56:40;1.50;1.00
9410;DHT22;4744;52.576;13.568;2023-04-10T04:59:06;1.50;1.00
9410;DHT22;4744;52.576;13.568;2023-04-10T05:01:33;1.50;1.00
9410;DHT22;4744;52.576;13.568;2023-04-10T05:06:32;1.60;1.00
9410;DHT22;4744;52.576;13.568;2023-04-10T05:09:00;1.60;1.00
9410;DHT22;4744;52.576;13.568;2023-04-10T05:11:27;1.60;1.00
9410;DHT22;4744;52.576;13.568;2023-04-10T05:13:54;1.60;1.00
9410;DHT22;4744;52.576;13.568;2023-04-10T05:16:21;1.60;1.00
9410;DHT22;4744;52.576;13.568;2023-04-10T05:18:48;1.70;1.00
9410;DHT22;4744;52.576;13.568;2023-04-10T05:21:15;1.70;1.00
9410;DHT22;4744;52.576;13.568;2023-04-10T05:23:41;1.70;1.00
9410;DHT22;4744;52.576;13.568;2023-04-10T05:26:10;1.80;1.00
9410;DHT22;4744;52.576;13.568;2023-04-10T05:28:37;1.80;1.00
9410;DHT22;4744;52.576;13.568;2023-04-10T05:31:04;1.90;1.00
9410;DHT22;4744;52.576;13.568;2023-04-10T05:33:31;2.00;1.00
9410;DHT22;4744;52.576;13.568;2023-04-10T05:35:58;2.10;1.00
9410;DHT22;4744;52.576;13.568;2023-04-10T05:38:25;2.20;1.00
9410;DHT22;4744;52.576;13.568;2023-04-10T05:40:52;2.40;1.00
9410;DHT22;4744;52.576;13.568;2023-04-10T05:43:21;2.60;1.00
9410;DHT22;4744;52.576;13.568;2023-04-10T05:45:48;2.70;1.00
9410;DHT22;4744;52.576;13.568;2023-04-10T05:48:14;2.80;1.00
9410;DHT22;4744;52.576;13.568;2023-04-10T05:50:41;3.00;1.00
9410;DHT22;4744;52.576;13.568;2023-04-10T05:53:12;3.10;1.00
9410;DHT22;4744;52.576;13.568;2023-04-10T05:55:39;3.30;1.00
9410;DHT22;4744;52.576;13.568;2023-04-10T05:58:06;3.40;1.00
9410;DHT22;4744;52.576;13.568;2023-04-10T06:00:34;3.50;1.00
9410;DHT22;4744;52.576;13.568;2023-04-10T06:03:01;3.60;1.00
9410;DHT22;4744;52.576;13.568;2023-04-10T06:05:28;3.70;1.00
9410;DHT22;4744;52.576;13.568;2023-04-10T06:07:55;3.90;1.00
9410;DHT22;4744;52.576;13.568;2023-04-10T06:10:22;4.10;1.00
9410;DHT22;4744;52.576;13.568;2023-04-10T06:12:49;4.20;1.00
9410;DHT22;4744;52.576;13.568;2023-04-10T06:15:16;4.40;1.00
9410;DHT22;4744;52.576;13.568;2023-04-10T06:17:44;4.60;1.00
9410;DHT22;4744;52.576;13.568;2023-04-10T06:20:11;4.80;1.00
9410;DHT22;4744;52.576;13.568;2023-04-10T06:22:38;4.90;1.00
9410;DHT22;4744;52.576;13.568;2023-04-10T06:25:06;5.20;1.00
9410;DHT22;4744;52.576;13.568;2023-04-10T06:27:33;5.40;1.00
9410;DHT22;4744;52.576;13.568;2023-04-10T06:30:01;5.60;1.00
9410;DHT22;4744;52.576;13.568;2023-04-10T06:32:28;5.80;1.00
9410;DHT22;4744;52.576;13.568;2023-04-10T06:34:56;5.90;1.00
9410;DHT22;4744;52.576;13.568;2023-04-10T06:37:26;6.10;1.00
9410;DHT22;4744;52.576;13.568;2023-04-10T06:40:06;6.30;1.00
9410;DHT22;4744;52.576;13.568;2023-04-10T06:42:33;6.60;1.00
9410;DHT22;4744;52.576;13.568;2023-04-10T06:45:01;6.80;1.00
9410;DHT22;4744;52.576;13.568;2023-04-10T06:47:28;7.00;1.00
9410;DHT22;4744;52.576;13.568;2023-04-10T06:49:56;7.10;1.00
9410;DHT22;4744;52.576;13.568;2023-04-10T06:52:23;7.30;1.00
9410;DHT22;4744;52.576;13.568;2023-04-10T06:54:50;7.50;1.00
9410;DHT22;4744;52.576;13.568;2023-04-10T06:57:17;7.70;1.00
9410;DHT22;4744;52.576;13.568;2023-04-10T06:59:44;7.90;1.00
9410;DHT22;4744;52.576;13.568;2023-04-10T07:02:11;8.00;1.00
9410;DHT22;4744;52.576;13.568;2023-04-10T07:04:38;8.10;1.00
9410;DHT22;4744;52.576;13.568;2023-04-10T07:07:06;8.30;1.00
9410;DHT22;4744;52.576;13.568;2023-04-10T07:09:34;8.40;1.00
9410;DHT22;4744;52.576;13.568;2023-04-10T07:12:01;8.50;1.00
9410;DHT22;4744;52.576;13.568;2023-04-10T07:14:28;8.70;1.00
9410;DHT22;4744;52.576;13.568;2023-04-10T07:16:55;8.80;1.00
9410;DHT22;4744;52.576;13.568;2023-04-10T07:19:22;9.00;1.00
9410;DHT22;4744;52.576;13.568;2023-04-10T07:21:49;9.10;1.00
9410;DHT22;4744;52.576;13.568;2023-04-10T07:24:17;9.10;1.00
9410;DHT22;4744;52.576;13.568;2023-04-10T07:26:44;9.20;1.00
9410;DHT22;4744;52.576;13.568;2023-04-10T07:29:11;9.30;1.00
9410;DHT22;4744;52.576;13.568;2023-04-10T07:31:38;9.40;1.00
9410;DHT22;4744;52.576;13.568;2023-04-10T07:34:05;9.50;1.00
9410;DHT22;4744;52.576;13.568;2023-04-10T07:36:32;9.60;1.00
9410;DHT22;4744;52.576;13.568;2023-04-10T07:39:00;9.70;1.00
9410;DHT22;4744;52.576;13.568;2023-04-10T07:41:28;9.80;1.00
9410;DHT22;4744;52.576;13.568;2023-04-10T07:43:55;10.00;1.00
9410;DHT22;4744;52.576;13.568;2023-04-10T07:46:22;10.10;1.00
9410;DHT22;4744;52.576;13.568;2023-04-10T07:48:49;10.20;1.00
9410;DHT22;4744;52.576;13.568;2023-04-10T07:51:16;10.30;1.00
9410;DHT22;4744;52.576;13.568;2023-04-10T07:53:43;10.40;1.00
9410;DHT22;4744;52.576;13.568;2023-04-10T07:56:14;10.60;1.00
9410;DHT22;4744;52.576;13.568;2023-04-10T07:58:43;10.70;1.00
9410;DHT22;4744;52.576;13.568;2023-04-10T08:01:11;11.20;1.00
9410;DHT22;4744;52.576;13.568;2023-04-10T08:03:38;12.10;1.00
9410;DHT22;4744;52.576;13.568;2023-04-10T08:06:06;13.20;1.00
9410;DHT22;4744;52.576;13.568;2023-04-10T08:08:35;14.20;1.00
9410;DHT22;4744;52.576;13.568;2023-04-10T08:11:03;15.10;1.00
9410;DHT22;4744;52.576;13.568;2023-04-10T08:13:30;15.10;1.00
9410;DHT22;4744;52.576;13.568;2023-04-10T08:15:59;15.40;1.00
9410;DHT22;4744;52.576;13.568;2023-04-10T08:18:26;16.20;1.00
9410;DHT22;4744;52.576;13.568;2023-04-10T08:20:52;16.40;1.00
9410;DHT22;4744;52.576;13.568;2023-04-10T08:23:19;16.20;1.00
9410;DHT22;4744;52.576;13.568;2023-04-10T08:25:46;16.00;1.00
9410;DHT22;4744;52.576;13.568;2023-04-10T08:28:13;15.90;1.00
9410;DHT22;4744;52.576;13.568;2023-04-10T08:30:40;15.80;1.00
9410;DHT22;4744;52.576;13.568;2023-04-10T08:33:08;15.40;1.00
9410;DHT22;4744;52.576;13.568;2023-04-10T08:35:35;14.70;1.00
9410;DHT22;4744;52.576;13.568;2023-04-10T08:38:02;13.90;1.00
9410;DHT22;4744;52.576;13.568;2023-04-10T08:40:29;13.60;1.00
9410;DHT22;4744;52.576;13.568;2023-04-10T08:42:56;13.50;1.00
9410;DHT22;4744;52.576;13.568;2023-04-10T08:45:23;13.60;1.00
9410;DHT22;4744;52.576;13.568;2023-04-10T08:47:50;14.00;1.00
9410;DHT22;4744;52.576;13.568;2023-04-10T08:50:20;14.20;1.00
9410;DHT22;4744;52.576;13.568;2023-04-10T08:52:50;14.30;1.00
9410;DHT22;4744;52.576;13.568;2023-04-10T08:55:17;14.70;1.00
9410;DHT22;4744;52.576;13.568;2023-04-10T08:57:45;15.40;1.00
9410;DHT22;4744;52.576;13.568;2023-04-10T09:00:13;16.30;1.00
9410;DHT22;4744;52.576;13.568;2023-04-10T09:02:41;16.70;1.00
9410;DHT22;4744;52.576;13.568;2023-04-10T09:05:10;16.50;1.00
9410;DHT22;4744;52.576;13.568;2023-04-10T09:07:39;16.20;1.00
9410;DHT22;4744;52.576;13.568;2023-04-10T09:10:07;15.90;1.00
9410;DHT22;4744;52.576;13.568;2023-04-10T09:12:43;15.40;1.00
9410;DHT22;4744;52.576;13.568;2023-04-10T09:15:11;15.50;1.00
9410;DHT22;4744;52.576;13.568;2023-04-10T09:17:54;15.80;1.00
9410;DHT22;4744;52.576;13.568;2023-04-10T09:20:23;15.80;1.00
9410;DHT22;4744;52.576;13.568;2023-04-10T09:22:51;15.90;1.00
9410;DHT22;4744;52.576;13.568;2023-04-10T09:25:32;16.20;1.00
9410;DHT22;4744;52.576;13.568;2023-04-10T09:28:01;16.60;1.00
9410;DHT22;4744;52.576;13.568;2023-04-10T09:30:35;16.60;1.00
9410;DHT22;4744;52.576;13.568;2023-04-10T09:33:20;16.60;1.00
9410;DHT22;4744;52.576;13.568;2023-04-10T09:35:48;16.50;1.00
9410;DHT22;4744;52.576;13.568;2023-04-10T09:38:17;16.40;1.00
9410;DHT22;4744;52.576;13.568;2023-04-10T09:40:46;16.40;1.00
9410;DHT22;4744;52.576;13.568;2023-04-10T09:43:20;16.20;1.00
9410;DHT22;4744;52.576;13.568;2023-04-10T09:45:48;16.00;1.00
9410;DHT22;4744;52.576;13.568;2023-04-10T09:48:16;16.10;1.00
9410;DHT22;4744;52.576;13.568;2023-04-10T09:50:43;16.30;1.00
9410;DHT22;4744;52.576;13.568;2023-04-10T09:53:12;16.00;1.00
9410;DHT22;4744;52.576;13.568;2023-04-10T09:55:42;16.00;1.00
9410;DHT22;4744;52.576;13.568;2023-04-10T09:58:09;15.70;1.00
9410;DHT22;4744;52.576;13.568;2023-04-10T10:00:39;15.60;1.00
9410;DHT22;4744;52.576;13.568;2023-04-10T10:03:08;15.70;1.00
9410;DHT22;4744;52.576;13.568;2023-04-10T10:05:37;15.80;1.00
9410;DHT22;4744;52.576;13.568;2023-04-10T10:08:06;15.90;1.00
9410;DHT22;4744;52.576;13.568;2023-04-10T10:10:33;16.00;1.00
9410;DHT22;4744;52.576;13.568;2023-04-10T10:13:02;16.20;1.00
9410;DHT22;4744;52.576;13.568;2023-04-10T10:15:35;16.30;1.00
9410;DHT22;4744;52.576;13.568;2023-04-10T10:18:09;16.50;1.00
9410;DHT22;4744;52.576;13.568;2023-04-10T10:20:43;16.50;1.00
9410;DHT22;4744;52.576;13.568;2023-04-10T10:23:11;16.60;1.00
9410;DHT22;4744;52.576;13.568;2023-04-10T10:25:39;16.70;1.00
9410;DHT22;4744;52.576;13.568;2023-04-10T10:28:11;16.50;1.00
9410;DHT22;4744;52.576;13.568;2023-04-10T10:30:39;16.30;1.00
9410;DHT22;4744;52.576;13.568;2023-04-10T10:33:06;16.10;1.00
9410;DHT22;4744;52.576;13.568;2023-04-10T10:35:34;16.10;1.00
9410;DHT22;4744;52.576;13.568;2023-04-10T10:38:02;16.30;1.00
9410;DHT22;4744;52.576;13.568;2023-04-10T10:40:31;16.40;1.00
9410;DHT22;4744;52.576;13.568;2023-04-10T10:43:09;16.50;1.00
9410;DHT22;4744;52.576;13.568;2023-04-10T10:45:41;16.40;1.00
9410;DHT22;4744;52.576;13.568;2023-04-10T10:48:10;16.50;1.00
9410;DHT22;4744;52.576;13.568;2023-04-10T10:50:53;16.50;1.00
9410;DHT22;4744;52.576;13.568;2023-04-10T10:53:36;16.50;1.00
9410;DHT22;4744;52.576;13.568;2023-04-10T10:56:33;16.70;1.00
9410;DHT22;4744;52.576;13.568;2023-04-10T10:59:02;16.80;1.00
9410;DHT22;4744;52.576;13.568;2023-04-10T11:01:29;16.90;1.00
9410;DHT22;4744;52.576;13.568;2023-04-10T11:03:56;17.00;1.00
9410;DHT22;4744;52.576;13.568;2023-04-10T11:06:48;17.00;1.00
9410;DHT22;4744;52.576;13.568;2023-04-10T11:09:48;17.00;1.00
9410;DHT22;4744;52.576;13.568;2023-04-10T11:12:17;17.00;1.00
9410;DHT22;4744;52.576;13.568;2023-04-10T11:14:56;16.80;1.00
9410;DHT22;4744;52.576;13.568;2023-04-10T11:17:45;16.60;1.00
9410;DHT22;4744;52.576;13.568;2023-04-10T11:20:13;16.50;1.00
9410;DHT22;4744;52.576;13.568;2023-04-10T11:23:10;16.40;1.00
9410;DHT22;4744;52.576;13.568;2023-04-10T11:25:48;16.50;1.00
9410;DHT22;4744;52.576;13.568;2023-04-10T11:28:35;16.60;1.00
9410;DHT22;4744;52.576;13.568;2023-04-10T11:31:18;16.60;1.00
9410;DHT22;4744;52.576;13.568;2023-04-10T11:33:47;16.50;1.00
9410;DHT22;4744;52.576;13.568;2023-04-10T11:36:14;16.40;1.00
9410;DHT22;4744;52.576;13.568;2023-04-10T11:38:56;16.40;1.00
9410;DHT22;4744;52.576;13.568;2023-04-10T11:41:27;16.40;1.00
9410;DHT22;4744;52.576;13.568;2023-04-10T11:43:55;16.50;1.00
9410;DHT22;4744;52.576;13.568;2023-04-10T11:46:23;16.50;1.00
9410;DHT22;4744;52.576;13.568;2023-04-10T11:48:55;16.50;1.00
9410;DHT22;4744;52.576;13.568;2023-04-10T11:51:22;16.50;1.00
9410;DHT22;4744;52.576;13.568;2023-04-10T11:54:03;16.50;1.00
9410;DHT22;4744;52.576;13.568;2023-04-10T11:56:30;16.50;1.00
9410;DHT22;4744;52.576;13.568;2023-04-10T11:58:57;16.50;1.00
9410;DHT22;4744;52.576;13.568;2023-04-10T12:01:25;16.40;1.00
9410;DHT22;4744;52.576;13.568;2023-04-10T12:03:52;16.50;1.00
9410;DHT22;4744;52.576;13.568;2023-04-10T12:06:20;16.50;1.00
9410;DHT22;4744;52.576;13.568;2023-04-10T12:08:47;16.50;1.00
9410;DHT22;4744;52.576;13.568;2023-04-10T12:11:17;16.40;1.00
9410;DHT22;4744;52.576;13.568;2023-04-10T12:13:45;16.50;1.00
9410;DHT22;4744;52.576;13.568;2023-04-10T12:16:12;16.60;1.00
9410;DHT22;4744;52.576;13.568;2023-04-10T12:18:41;16.70;1.00
9410;DHT22;4744;52.576;13.568;2023-04-10T12:21:10;16.80;1.00
9410;DHT22;4744;52.576;13.568;2023-04-10T12:23:37;16.90;1.00
9410;DHT22;4744;52.576;13.568;2023-04-10T12:26:07;17.00;1.00
9410;DHT22;4744;52.576;13.568;2023-04-10T12:28:35;17.10;1.00
9410;DHT22;4744;52.576;13.568;2023-04-10T12:31:02;17.20;1.00
9410;DHT22;4744;52.576;13.568;2023-04-10T12:33:29;17.30;1.00
9410;DHT22;4744;52.576;13.568;2023-04-10T12:35:57;17.30;1.00
9410;DHT22;4744;52.576;13.568;2023-04-10T12:38:35;17.40;1.00
9410;DHT22;4744;52.576;13.568;2023-04-10T12:41:02;17.50;1.00
9410;DHT22;4744;52.576;13.568;2023-04-10T12:43:32;17.50;1.00
9410;DHT22;4744;52.576;13.568;2023-04-10T12:45:59;17.40;1.00
9410;DHT22;4744;52.576;13.568;2023-04-10T12:48:26;17.40;1.00
9410;DHT22;4744;52.576;13.568;2023-04-10T12:50:53;17.60;1.00
9410;DHT22;4744;52.576;13.568;2023-04-10T12:53:22;17.80;1.00
9410;DHT22;4744;52.576;13.568;2023-04-10T12:56:00;17.80;1.00
9410;DHT22;4744;52.576;13.568;2023-04-10T12:58:27;17.80;1.00
9410;DHT22;4744;52.576;13.568;2023-04-10T13:00:56;17.80;1.00
9410;DHT22;4744;52.576;13.568;2023-04-10T13:03:23;17.80;1.00
9410;DHT22;4744;52.576;13.568;2023-04-10T13:05:51;17.80;1.00
9410;DHT22;4744;52.576;13.568;2023-04-10T13:08:18;17.70;1.00
9410;DHT22;4744;52.576;13.568;2023-04-10T13:10:47;17.60;1.00
9410;DHT22;4744;52.576;13.568;2023-04-10T13:13:15;17.60;1.00
9410;DHT22;4744;52.576;13.568;2023-04-10T13:15:42;17.60;1.00
9410;DHT22;4744;52.576;13.568;2023-04-10T13:18:09;17.60;1.00
9410;DHT22;4744;52.576;13.568;2023-04-10T13:20:37;17.70;1.00
9410;DHT22;4744;52.576;13.568;2023-04-10T13:23:05;17.50;1.00
9410;DHT22;4744;52.576;13.568;2023-04-10T13:25:33;17.10;1.00
9410;DHT22;4744;52.576;13.568;2023-04-10T13:28:03;16.90;1.00
9410;DHT22;4744;52.576;13.568;2023-04-10T13:30:34;16.80;1.00
9410;DHT22;4744;52.576;13.568;2023-04-10T13:33:01;16.90;1.00
9410;DHT22;4744;52.576;13.568;2023-04-10T13:35:29;16.80;1.00
9410;DHT22;4744;52.576;13.568;2023-04-10T13:37:56;16.70;1.00
9410;DHT22;4744;52.576;13.568;2023-04-10T13:40:22;16.70;1.00
9410;DHT22;4744;52.576;13.568;2023-04-10T13:42:49;16.90;1.00
9410;DHT22;4744;52.576;13.568;2023-04-10T13:45:18;17.10;1.00
9410;DHT22;4744;52.576;13.568;2023-04-10T13:47:45;17.00;1.00
9410;DHT22;4744;52.576;13.568;2023-04-10T13:50:11;17.00;1.00
9410;DHT22;4744;52.576;13.568;2023-04-10T13:52:38;17.10;1.00
9410;DHT22;4744;52.576;13.568;2023-04-10T13:55:06;17.20;1.00
9410;DHT22;4744;52.576;13.568;2023-04-10T13:57:33;17.20;1.00
9410;DHT22;4744;52.576;13.568;2023-04-10T14:00:00;17.20;1.00
9410;DHT22;4744;52.576;13.568;2023-04-10T14:02:30;17.00;1.00
9410;DHT22;4744;52.576;13.568;2023-04-10T14:04:58;16.90;1.00
9410;DHT22;4744;52.576;13.568;2023-04-10T14:07:25;16.80;1.00
9410;DHT22;4744;52.576;13.568;2023-04-10T14:09:52;16.60;1.00
9410;DHT22;4744;52.576;13.568;2023-04-10T14:12:19;16.60;1.00
9410;DHT22;4744;52.576;13.568;2023-04-10T14:14:47;16.50;1.00
9410;DHT22;4744;52.576;13.568;2023-04-10T14:17:14;16.60;1.00
9410;DHT22;4744;52.576;13.568;2023-04-10T14:19:43;16.70;1.00
9410;DHT22;4744;52.576;13.568;2023-04-10T14:22:13;16.80;1.00
9410;DHT22;4744;52.576;13.568;2023-04-10T14:24:40;16.80;1.00
9410;DHT22;4744;52.576;13.568;2023-04-10T14:27:07;16.90;1.00
9410;DHT22;4744;52.576;13.568;2023-04-10T14:29:34;16.90;1.00
9410;DHT22;4744;52.576;13.568;2023-04-10T14:32:01;17.00;1.00
9410;DHT22;4744;52.576;13.568;2023-04-10T14:34:28;17.00;1.00
9410;DHT22;4744;52.576;13.568;2023-04-10T14:36:56;17.00;1.00
9410;DHT22;4744;52.576;13.568;2023-04-10T14:39:23;17.00;1.00
9410;DHT22;4744;52.576;13.568;2023-04-10T14:41:50;17.10;1.00
9410;DHT22;4744;52.576;13.568;2023-04-10T14:44:17;17.30;1.00
9410;DHT22;4744;52.576;13.568;2023-04-10T14:46:44;17.50;1.00
9410;DHT22;4744;52.576;13.568;2023-04-10T14:49:12;17.50;1.00
9410;DHT22;4744;52.576;13.568;2023-04-10T14:51:42;17.40;1.00
9410;DHT22;4744;52.576;13.568;2023-04-10T14:54:11;17.30;1.00
9410;DHT22;4744;52.576;13.568;2023-04-10T14:56:37;17.20;1.00
9410;DHT22;4744;52.576;13.568;2023-04-10T14:59:04;17.00;1.00
9410;DHT22;4744;52.576;13.568;2023-04-10T15:01:33;16.90;1.00
9410;DHT22;4744;52.576;13.568;2023-04-10T15:04:01;16.90;1.00
9410;DHT22;4744;52.576;13.568;2023-04-10T15:06:27;16.90;1.00
9410;DHT22;4744;52.576;13.568;2023-04-10T15:08:57;17.00;1.00
9410;DHT22;4744;52.576;13.568;2023-04-10T15:11:25;16.90;1.00
9410;DHT22;4744;52.576;13.568;2023-04-10T15:13:52;16.80;1.00
9410;DHT22;4744;52.576;13.568;2023-04-10T15:16:19;16.70;1.00
9410;DHT22;4744;52.576;13.568;2023-04-10T15:18:46;16.70;1.00
9410;DHT22;4744;52.576;13.568;2023-04-10T15:21:14;16.60;1.00
9410;DHT22;4744;52.576;13.568;2023-04-10T15:23:41;16.50;1.00
9410;DHT22;4744;52.576;13.568;2023-04-10T15:26:10;16.50;1.00
9410;DHT22;4744;52.576;13.568;2023-04-10T15:28:39;16.40;1.00
9410;DHT22;4744;52.576;13.568;2023-04-10T15:31:07;16.40;1.00
9410;DHT22;4744;52.576;13.568;2023-04-10T15:33:34;16.40;1.00
9410;DHT22;4744;52.576;13.568;2023-04-10T15:36:03;16.40;1.00
9410;DHT22;4744;52.576;13.568;2023-04-10T15:38:33;16.30;1.00
9410;DHT22;4744;52.576;13.568;2023-04-10T15:41:00;16.20;1.00
9410;DHT22;4744;52.576;13.568;2023-04-10T15:43:33;16.20;1.00
9410;DHT22;4744;52.576;13.568;2023-04-10T15:46:01;16.20;1.00
9410;DHT22;4744;52.576;13.568;2023-04-10T15:48:28;16.30;1.00
9410;DHT22;4744;52.576;13.568;2023-04-10T15:50:55;16.40;1.00
9410;DHT22;4744;52.576;13.568;2023-04-10T15:53:23;16.40;1.00
9410;DHT22;4744;52.576;13.568;2023-04-10T15:55:49;16.40;1.00
9410;DHT22;4744;52.576;13.568;2023-04-10T15:58:17;16.40;1.00
9410;DHT22;4744;52.576;13.568;2023-04-10T16:00:44;16.50;1.00
9410;DHT22;4744;52.576;13.568;2023-04-10T16:03:15;16.50;1.00
9410;DHT22;4744;52.576;13.568;2023-04-10T16:05:42;16.40;1.00
9410;DHT22;4744;52.576;13.568;2023-04-10T16:08:09;16.30;1.00
9410;DHT22;4744;52.576;13.568;2023-04-10T16:10:36;16.30;1.00
9410;DHT22;4744;52.576;13.568;2023-04-10T16:13:03;16.40;1.00
9410;DHT22;4744;52.576;13.568;2023-04-10T16:15:32;16.30;1.00
9410;DHT22;4744;52.576;13.568;2023-04-10T16:18:00;16.30;1.00
9410;DHT22;4744;52.576;13.568;2023-04-10T16:20:28;16.30;1.00
9410;DHT22;4744;52.576;13.568;2023-04-10T16:22:55;16.20;1.00